createdAt,value
2019-05-18T00:07:48.639Z,93088.70
2019-05-18T00:17:50.061Z,93097.28
2019-05-18T00:27:52.828Z,93098.62
2019-05-18T00:37:54.354Z,93098.27
2019-05-18T00:47:55.799Z,93085.97
2019-05-18T00:57:57.357Z,93082.39
2019-05-18T01:07:59.119Z,93077.20
2019-05-18T01:18:02.265Z,93072.67
2019-05-18T01:28:04.035Z,93070.41
2019-05-18T01:38:05.715Z,93068.09
2019-05-18T01:48:13.876Z,93071.50
2019-05-18T01:58:10.483Z,93070.05
2019-05-18T02:08:11.937Z,93061.14
2019-05-18T02:18:26.891Z,93064.42
2019-05-18T02:28:16.737Z,93059.89
2019-05-18T02:38:19.292Z,93061.48
2019-05-18T02:48:20.724Z,93058.33
2019-05-18T02:58:22.268Z,93053.36
2019-05-18T03:08:23.791Z,93055.86
2019-05-18T03:18:25.432Z,93058.54
2019-05-18T03:28:26.878Z,93052.79
2019-05-18T03:38:28.303Z,93058.91
2019-05-18T03:48:29.731Z,93066.14
2019-05-18T03:58:31.204Z,93062.63
2019-05-18T04:08:32.669Z,93061.56
2019-05-18T04:18:34.094Z,93063.03
2019-05-18T04:28:36.656Z,93062.26
2019-05-18T04:38:39.168Z,93058.38
2019-05-18T04:48:40.610Z,93051.42
2019-05-18T04:58:42.072Z,93061.42
2019-05-18T05:08:46.216Z,93064.67
2019-05-18T05:18:49.227Z,93056.80
2019-05-18T05:28:50.883Z,93057.09
2019-05-18T05:38:52.389Z,93060.44
2019-05-18T05:48:53.869Z,93061.73
2019-05-18T05:58:55.292Z,93071.19
2019-05-18T06:08:56.724Z,93065.30
2019-05-18T06:18:58.184Z,93066.35
2019-05-18T06:28:59.730Z,93060.48
2019-05-18T06:39:01.343Z,93058.73
2019-05-18T06:49:04.601Z,93067.43
2019-05-18T06:59:06.276Z,93064.03
2019-05-18T07:09:13.772Z,93074.19
2019-05-18T07:19:11.618Z,93069.60
2019-05-18T07:29:13.251Z,93069.34
2019-05-18T07:39:16.588Z,93060.41
2019-05-18T07:49:18.018Z,93049.91
2019-05-18T07:59:20.006Z,93049.03
2019-05-18T08:09:21.563Z,93041.48
2019-05-18T08:19:23.152Z,93049.08
2019-05-18T08:29:26.735Z,93048.41
2019-05-18T08:39:28.383Z,93037.05
2019-05-18T08:49:29.935Z,93038.34
2019-05-18T08:59:31.587Z,93029.22
2019-05-18T09:09:33.198Z,93035.25
2019-05-18T09:19:34.731Z,93026.41
2019-05-18T09:29:36.258Z,93020.34
2019-05-18T09:39:37.819Z,93021.67
2019-05-18T09:49:39.296Z,93025.05
2019-05-18T09:59:40.749Z,93015.23
2019-05-18T10:09:42.236Z,93015.70
2019-05-18T10:19:43.677Z,93018.87
2019-05-18T10:29:46.727Z,93013.22
2019-05-18T10:39:48.477Z,93019.34
2019-05-18T10:49:49.948Z,93003.23
2019-05-18T10:59:51.382Z,93006.67
2019-05-18T11:09:52.878Z,93007.74
2019-05-18T11:19:57.357Z,92998.80
2019-05-18T11:29:58.929Z,93003.58
2019-05-18T11:40:00.585Z,92993.12
2019-05-18T11:50:05.872Z,92981.29
2019-05-18T12:00:11.336Z,92980.67
2019-05-18T12:10:14.099Z,92970.12
2019-05-18T12:20:17.656Z,92980.26
2019-05-18T12:30:19.536Z,92966.14
2019-05-18T12:40:22.010Z,92974.41
2019-05-18T12:50:25.265Z,92965.00
2019-05-18T13:00:27.883Z,92956.02
2019-05-18T13:10:31.423Z,92951.41
2019-05-18T13:20:33.043Z,92950.01
2019-05-18T13:30:36.523Z,92940.03
2019-05-18T13:40:38.239Z,92945.47
2019-05-18T13:50:44.905Z,92933.56
2019-05-18T14:00:49.322Z,92922.63
2019-05-18T14:10:55.899Z,92912.29
2019-05-18T14:20:59.268Z,92904.41
2019-05-18T14:31:02.112Z,92901.88
2019-05-18T14:41:03.867Z,92908.97
2019-05-18T14:51:05.395Z,92917.55
2019-05-18T15:01:07.816Z,92922.61
2019-05-18T15:11:09.446Z,92929.40
2019-05-18T15:21:10.894Z,92926.66
2019-05-18T15:31:12.574Z,92933.28
2019-05-18T15:41:16.036Z,92936.94
2019-05-18T15:51:17.607Z,92942.13
2019-05-18T16:01:19.083Z,92939.47
2019-05-18T16:11:20.712Z,92945.08
2019-05-18T16:21:23.915Z,92948.38
2019-05-18T16:31:25.575Z,92955.47
2019-05-18T16:41:27.102Z,92953.55
2019-05-18T16:51:28.591Z,92954.03
2019-05-18T17:01:30.236Z,92952.72
2019-05-18T17:11:31.776Z,92954.92
2019-05-18T17:21:33.266Z,92971.00
2019-05-18T17:31:34.807Z,92980.85
2019-05-18T17:41:36.246Z,92994.00
2019-05-18T17:51:37.704Z,92988.66
2019-05-18T18:01:39.243Z,92991.18
2019-05-18T18:11:40.922Z,92989.61
2019-05-18T18:21:42.483Z,93000.73
2019-05-18T18:31:45.898Z,93004.06
2019-05-18T18:41:47.481Z,93008.80
2019-05-18T18:51:50.955Z,93015.83
2019-05-18T19:01:55.882Z,93023.73
2019-05-18T19:11:59.327Z,93032.94
2019-05-18T19:22:01.071Z,93035.56
2019-05-18T19:32:02.631Z,93049.56
2019-05-18T19:42:04.276Z,93067.72
2019-05-18T19:52:05.870Z,93096.59
2019-05-18T20:02:07.319Z,93103.22
2019-05-18T20:12:08.962Z,93103.45
2019-05-18T20:22:10.445Z,93103.02
2019-05-18T20:32:11.926Z,93090.66
2019-05-18T20:42:13.348Z,93078.84
2019-05-18T20:52:15.066Z,93079.14
2019-05-18T21:02:16.729Z,93070.21
2019-05-18T21:12:18.496Z,93070.81
2019-05-18T21:22:19.975Z,93063.86
2019-05-18T21:32:21.529Z,93063.42
2019-05-18T21:42:23.076Z,93068.77
2019-05-18T21:52:24.645Z,93073.22
2019-05-18T22:02:26.178Z,93078.38
2019-05-18T22:12:27.713Z,93070.70
2019-05-18T22:22:29.278Z,93070.27
2019-05-18T22:32:30.842Z,93071.50
2019-05-18T22:42:32.277Z,93081.23
2019-05-18T22:52:33.931Z,93099.81
2019-05-18T23:02:35.575Z,93114.62
2019-05-18T23:12:37.038Z,93122.31
2019-05-18T23:22:38.517Z,93111.61
2019-05-18T23:32:40.036Z,93104.91
2019-05-18T23:42:41.584Z,93093.15
2019-05-18T23:52:43.027Z,93092.20
